• Join FlightAware (Why Join?)
  • Login
  • US Flag 
04:59AM EDT


 

Airport Tracker/Info


-or-


 

Live Flight TrackerFlight Track Log ✈ WBR2705 ✈ 21-Jun-2013 ✈ KSTL - KJBR

Flight Track Log - Related Links

Times and Time Zones

All times are in EDT time to prevent confusion due to time zone crossing. See the WBR2705 flight status page for this flight to view local times or setup timezone preferences in your user account.

Time Position Orientation Groundspeed Altitude Reporting Facility
EDT Latitude Longitude Course Direction KTS MPH feet Rate Location/Type
03:54PM 38.6839 -90.3242 184° South 111 128 2,100  Level Kansas City Center
03:55PM 38.6500 -90.3144 167° South 117 135 2,800 420 Climbing Kansas City Center
03:56PM 38.6158 -90.3028 165° South 121 139 3,000 480 Climbing Kansas City Center
03:57PM 38.5681 -90.2956 173° South 133 153 3,900 720 Climbing Kansas City Center
03:58PM 38.4935 -90.3951 185° South  Level Estimated
03:58PM 38.5353 -90.2986 184° South 124 143 4,600  Level Kansas City Center
03:59PM 38.4510 -90.3987 184° South  Level FlightAware Approximate
03:59PM 38.5158 -90.2633 125° Southeast 131 151 5,000  Level Kansas City Center
04:00PM 38.4958 -90.2219 122° Southeast 137 158 5,800 480 Climbing Kansas City Center
04:01PM 38.4586 -90.2228 181° South 140 161 6,000 60 Climbing Kansas City Center
04:02PM 38.4194 -90.2294 188° South 140 161 6,000  Level Kansas City Center
04:03PM 38.3725 -90.2364 187° South 141 162 6,000  Level Kansas City Center
04:04PM 38.3328 -90.2436 188° South 142 163 6,000  Level Kansas City Center
04:05PM 38.2919 -90.2500 187° South 145 167 6,000  Level Kansas City Center
04:06PM 38.2522 -90.2561 187° South 145 167 6,000  Level Kansas City Center
04:07PM 38.2125 -90.2625 187° South 144 166 6,000  Level Kansas City Center
04:08PM 38.1714 -90.2700 188° South 146 168 6,000  Level Kansas City Center
04:09PM 38.1236 -90.2767 186° South 146 168 6,100  Climbing Kansas City Center
04:10PM 38.0822 -90.2842 188° South 150 173 6,100  Level Kansas City Center
04:11PM 38.0422 -90.2900 187° South 146 168 6,100  Level Kansas City Center
04:12PM 38.0022 -90.2969 188° South 145 167 6,100  Level Kansas City Center
04:13PM 37.9611 -90.3031 187° South 148 170 6,100 -60 Level Kansas City Center
04:14PM 37.9219 -90.3100 188° South 142 163 6,000 -60 Descending Kansas City Center
04:15PM 37.8736 -90.3183 188° South 144 166 6,000  Level Kansas City Center
04:16PM 37.8333 -90.3247 187° South 146 168 6,000  Level Kansas City Center
04:17PM 37.7919 -90.3322 188° South 148 170 6,000  Level Kansas City Center
04:19PM 37.7514 -90.3397 188° South 148 170 6,000  Level Kansas City Center
04:20PM 37.7114 -90.3453 186° South 146 168 6,000  Level Kansas City Center
04:21PM 37.6717 -90.3489 184° South 145 167 6,000  Level Kansas City Center
04:22PM 37.6236 -90.3561 187° South 145 167 6,000  Level Kansas City Center
04:23PM 37.5836 -90.3661 191° South 145 167 6,000  Level Kansas City Center
04:24PM 37.5450 -90.3767 192° South 144 166 6,000  Level Kansas City Center
04:25PM 37.5053 -90.3842 189° South 144 166 6,000  Level Kansas City Center
04:26PM 37.4647 -90.3856 182° South 144 166 6,000  Level Kansas City Center
04:27PM 37.4250 -90.3894 184° South 144 166 6,000  Level Kansas City Center
04:28PM 37.3786 -90.4003 191° South 143 165 6,000  Level Kansas City Center
04:29PM 37.3394 -90.4078 189° South 142 163 6,100  Climbing Kansas City Center
04:30PM 37.3025 -90.4114 184° South 139 160 6,100  Level Kansas City Center
04:31PM 37.2639 -90.4161 186° South 137 158 6,100  Level Kansas City Center
04:32PM 37.2250 -90.4225 187° South 138 159 6,100  Level Kansas City Center
04:33PM 37.1775 -90.4300 187° South 140 161 6,100  Level Kansas City Center
04:34PM 37.1386 -90.4369 188° South 141 162 6,100  Level Kansas City Center
04:35PM 37.0997 -90.4442 188° South 142 163 6,100  Level Kansas City Center
04:36PM 37.0614 -90.4497 187° South 140 161 6,100  Level Kansas City Center
04:37PM 37.0231 -90.4561 188° South 140 161 6,100  Level Kansas City Center
04:38PM 36.9839 -90.4631 188° South 140 161 6,100  Level Kansas City Center
04:39PM 36.9383 -90.4700 187° South 139 160 6,100  Level Kansas City Center
04:40PM 36.8989 -90.4769 188° South 140 161 6,100  Level Kansas City Center
04:41PM 36.8597 -90.4831 187° South 141 162 6,100 -60 Level Kansas City Center
04:42PM 36.8194 -90.4917 190° South 144 166 6,000 -120 Descending Memphis Center